Terminal Aerodrome Forecast
Issued by NWS Cleveland, OH

Home | Current Version | Previous Version | Text Only | Print | Product List | Glossary On
Versions: 1 2 3 4 5 6 7 8 9 10 11 12 13 14 15 16 17 18 19 20
506
FTUS41 KCLE 022328
TAFYNG
TAF
KYNG 022328Z 0300/0324 27010KT 6SM BR SCT015 OVC035
      TEMPO 0300/0304 3SM -SNRA BR BKN015
     FM030400 27010KT P6SM VCSH OVC018
     FM031000 28007KT 5SM BR VCSH OVC008
     FM031600 28009KT P6SM VCSH OVC015
     FM032100 28009KT P6SM OVC030=

USA.gov is the U.S. government's official web portal to all federal, state and local government web resources and services.